createdAt,value
2023-04-30T00:00:00.861Z,6.92
2023-04-30T00:02:49.955Z,6.92
2023-04-30T00:05:36.882Z,6.96
2023-04-30T00:08:17.369Z,7.06
2023-04-30T00:11:03.966Z,7.01
2023-04-30T00:13:44.314Z,7.08
2023-04-30T00:16:30.845Z,6.94
2023-04-30T00:19:11.272Z,6.84
2023-04-30T00:21:57.770Z,6.84
2023-04-30T00:24:44.871Z,6.92
2023-04-30T00:27:31.794Z,6.91
2023-04-30T00:30:12.824Z,6.82
2023-04-30T00:32:59.830Z,6.89
2023-04-30T00:35:46.824Z,6.89
2023-04-30T00:38:26.919Z,6.97
2023-04-30T00:41:13.868Z,6.91
2023-04-30T00:43:53.930Z,6.95
2023-04-30T00:46:40.866Z,6.76
2023-04-30T00:49:22.070Z,6.73
2023-04-30T00:52:08.819Z,6.75
2023-04-30T00:54:48.988Z,6.67
2023-04-30T00:57:35.734Z,6.66
2023-04-30T01:00:23.740Z,6.62
2023-04-30T01:03:10.946Z,6.73
2023-04-30T01:05:50.890Z,6.84
2023-04-30T01:08:38.706Z,6.95
2023-04-30T01:11:31.771Z,6.96
2023-04-30T01:14:44.755Z,6.90
2023-04-30T01:17:52.985Z,6.87
2023-04-30T01:20:40.740Z,6.85
2023-04-30T01:23:45.773Z,6.84
2023-04-30T01:26:52.680Z,6.79
2023-04-30T01:29:33.901Z,6.75
2023-04-30T01:32:20.770Z,6.78
2023-04-30T01:35:03.091Z,6.76
2023-04-30T01:38:00.701Z,6.86
2023-04-30T01:40:47.751Z,6.87
2023-04-30T01:43:52.723Z,6.70
2023-04-30T01:46:43.798Z,6.67
2023-04-30T01:50:11.856Z,6.71
2023-04-30T01:53:00.717Z,6.54
2023-04-30T01:56:06.174Z,6.49
2023-04-30T01:58:53.707Z,6.51
2023-04-30T02:01:34.200Z,6.54
2023-04-30T02:04:20.717Z,6.54
2023-04-30T02:07:01.253Z,6.51
2023-04-30T02:09:47.698Z,6.39
2023-04-30T02:12:30.169Z,6.33
2023-04-30T02:15:17.694Z,6.36
2023-04-30T02:17:58.185Z,6.30
2023-04-30T02:20:44.656Z,6.21
2023-04-30T02:23:24.998Z,6.23
2023-04-30T02:26:11.597Z,6.24
2023-04-30T02:28:58.861Z,6.39
2023-04-30T02:31:38.696Z,5.98
2023-04-30T02:34:25.687Z,6.02
2023-04-30T02:37:05.730Z,6.05
2023-04-30T02:39:52.729Z,6.01
2023-04-30T02:42:46.687Z,5.94
2023-04-30T02:45:33.714Z,5.90
2023-04-30T02:48:13.687Z,5.96
2023-04-30T02:51:00.668Z,5.92
2023-04-30T02:53:40.739Z,5.98
2023-04-30T02:56:27.654Z,6.02
2023-04-30T02:59:08.759Z,5.92
2023-04-30T03:01:55.623Z,5.95
2023-04-30T03:04:36.717Z,6.12
2023-04-30T03:07:23.651Z,6.14
2023-04-30T03:10:03.698Z,6.17
2023-04-30T03:12:50.572Z,6.23
2023-04-30T03:15:30.983Z,6.33
2023-04-30T03:18:17.554Z,6.16
2023-04-30T03:20:57.768Z,6.20
2023-04-30T03:23:44.535Z,6.32
2023-04-30T03:26:24.650Z,6.39
2023-04-30T03:29:11.585Z,6.36
2023-04-30T03:31:58.602Z,6.51
2023-04-30T03:34:38.939Z,6.64
2023-04-30T03:37:25.528Z,6.70
2023-04-30T03:40:20.523Z,6.64
2023-04-30T03:43:01.027Z,6.74
2023-04-30T03:45:47.589Z,6.87
2023-04-30T03:48:34.510Z,6.99
2023-04-30T03:51:14.604Z,7.16
2023-04-30T03:54:01.495Z,7.22
2023-04-30T03:56:42.656Z,7.30
2023-04-30T03:59:29.550Z,7.77
2023-04-30T04:02:09.662Z,7.67
2023-04-30T04:04:57.504Z,7.94
2023-04-30T04:07:37.826Z,8.85
2023-04-30T04:10:24.556Z,9.48
2023-04-30T04:13:11.507Z,9.77
2023-04-30T04:15:52.070Z,10.68
2023-04-30T04:18:38.488Z,10.03
2023-04-30T04:21:19.256Z,10.01
2023-04-30T04:24:06.443Z,9.40
2023-04-30T04:26:48.124Z,9.64
2023-04-30T04:29:35.514Z,10.04
2023-04-30T04:32:15.932Z,10.99
2023-04-30T04:35:03.493Z,11.36
2023-04-30T04:37:45.177Z,11.74
2023-04-30T04:40:31.869Z,12.78
2023-04-30T04:43:12.371Z,12.33
2023-04-30T04:45:59.495Z,12.27
2023-04-30T04:48:39.835Z,13.13
2023-04-30T04:51:26.497Z,12.25
2023-04-30T04:54:13.415Z,12.83
2023-04-30T04:56:53.554Z,13.11
2023-04-30T04:59:40.474Z,12.46
2023-04-30T05:02:21.307Z,12.70
2023-04-30T05:05:09.436Z,12.98
2023-04-30T05:07:58.414Z,11.18
2023-04-30T05:10:45.505Z,11.91
2023-04-30T05:13:25.556Z,12.62
2023-04-30T05:16:12.465Z,13.24
2023-04-30T05:18:52.580Z,14.00
2023-04-30T05:21:39.510Z,14.39
2023-04-30T05:24:19.480Z,13.67
2023-04-30T05:27:06.393Z,14.15
2023-04-30T05:29:46.484Z,15.18
2023-04-30T05:32:34.431Z,15.44
2023-04-30T05:35:15.515Z,15.41
2023-04-30T05:38:02.390Z,15.81
2023-04-30T05:40:42.522Z,16.31
2023-04-30T05:43:29.451Z,16.80
2023-04-30T05:46:09.525Z,17.17
2023-04-30T05:48:56.417Z,17.85
2023-04-30T05:51:36.577Z,18.09
2023-04-30T05:54:23.332Z,18.09
2023-04-30T05:57:04.146Z,18.35
2023-04-30T05:59:51.491Z,18.68
2023-04-30T06:02:38.533Z,19.12
2023-04-30T06:05:25.336Z,20.50
2023-04-30T06:08:12.373Z,21.42
2023-04-30T06:10:59.338Z,21.49
2023-04-30T06:13:39.563Z,20.47
2023-04-30T06:16:26.443Z,21.37
2023-04-30T06:19:13.316Z,21.67
2023-04-30T06:22:00.396Z,22.52
2023-04-30T06:24:40.495Z,23.13
2023-04-30T06:27:27.341Z,24.29
2023-04-30T06:30:07.482Z,24.04
2023-04-30T06:32:54.405Z,24.14
2023-04-30T06:35:34.602Z,23.58
2023-04-30T06:38:21.306Z,24.21
2023-04-30T06:41:15.374Z,25.45
2023-04-30T06:44:02.336Z,24.14
2023-04-30T06:46:42.609Z,26.03
2023-04-30T06:49:29.364Z,26.13
2023-04-30T06:52:09.662Z,26.02
2023-04-30T06:54:56.353Z,25.31
2023-04-30T06:57:37.632Z,24.69
2023-04-30T07:00:24.323Z,25.42
2023-04-30T07:03:11.501Z,25.45
2023-04-30T07:06:00.360Z,26.49
2023-04-30T07:08:41.377Z,28.07
2023-04-30T07:11:28.306Z,26.81
2023-04-30T07:14:15.305Z,26.27
2023-04-30T07:17:03.308Z,26.19
2023-04-30T07:19:43.701Z,27.53
2023-04-30T07:22:30.273Z,27.15
2023-04-30T07:25:10.488Z,26.92
2023-04-30T07:40:36.351Z,26.29
2023-04-30T07:43:17.278Z,25.77
2023-04-30T07:46:04.108Z,25.84
2023-04-30T07:48:51.870Z,28.03
2023-04-30T07:51:39.958Z,27.82
2023-04-30T07:54:20.398Z,27.06
2023-04-30T07:57:06.888Z,28.04
2023-04-30T07:59:53.912Z,28.35
2023-04-30T08:02:34.182Z,30.41
2023-04-30T08:05:20.874Z,30.61
2023-04-30T08:08:01.059Z,28.42
2023-04-30T08:10:48.925Z,27.43
2023-04-30T08:13:38.286Z,30.48
2023-04-30T08:16:18.521Z,28.01
2023-04-30T08:19:04.869Z,30.09
2023-04-30T08:21:45.418Z,29.51
2023-04-30T08:24:31.916Z,29.84
2023-04-30T08:27:12.276Z,29.98
2023-04-30T08:29:58.912Z,27.61
2023-04-30T08:32:39.333Z,27.80
2023-04-30T08:35:25.908Z,29.94
2023-04-30T08:38:19.879Z,29.60
2023-04-30T08:41:18.860Z,29.71
2023-04-30T08:44:00.018Z,30.13
2023-04-30T08:46:48.879Z,31.57
2023-04-30T08:49:32.808Z,29.40
2023-04-30T08:52:19.820Z,29.50
2023-04-30T08:55:03.979Z,28.53
2023-04-30T08:57:50.850Z,28.52
2023-04-30T09:00:31.030Z,29.68
2023-04-30T09:03:17.942Z,27.99
2023-04-30T09:05:58.369Z,28.89
2023-04-30T09:08:55.900Z,29.81
2023-04-30T09:11:36.918Z,30.07
2023-04-30T09:14:31.860Z,32.34
2023-04-30T09:17:13.175Z,33.00
2023-04-30T09:19:59.827Z,33.50
2023-04-30T09:22:46.842Z,32.36
2023-04-30T09:25:39.548Z,31.33
2023-04-30T09:28:31.845Z,31.82
2023-04-30T09:31:28.812Z,31.25
2023-04-30T09:34:15.876Z,30.82
2023-04-30T09:36:58.072Z,31.49
2023-04-30T09:39:44.819Z,30.65
2023-04-30T09:42:31.835Z,31.83
2023-04-30T09:45:18.798Z,31.52
2023-04-30T09:48:12.848Z,34.07
2023-04-30T09:51:04.807Z,32.93
2023-04-30T09:53:45.430Z,30.44
2023-04-30T09:56:36.782Z,31.83
2023-04-30T09:59:21.511Z,31.89
2023-04-30T10:02:08.832Z,35.08
2023-04-30T10:05:02.774Z,33.15
2023-04-30T10:07:53.800Z,32.66
2023-04-30T10:10:43.818Z,32.51
2023-04-30T10:13:26.907Z,31.12
2023-04-30T10:16:33.799Z,31.65
2023-04-30T10:19:37.902Z,30.90
2023-04-30T10:22:25.805Z,30.02
2023-04-30T10:25:07.185Z,30.84
2023-04-30T10:27:53.736Z,29.38
2023-04-30T10:30:33.925Z,29.68
2023-04-30T10:33:26.843Z,28.92
2023-04-30T10:36:18.904Z,28.40
2023-04-30T10:39:06.799Z,29.04
2023-04-30T10:41:50.098Z,29.34
2023-04-30T10:44:39.753Z,30.06
2023-04-30T10:47:26.777Z,29.79
2023-04-30T10:50:10.956Z,30.63
2023-04-30T10:52:57.785Z,29.14
2023-04-30T10:56:08.775Z,29.20
2023-04-30T10:58:55.821Z,28.89
2023-04-30T11:02:02.970Z,29.91
2023-04-30T11:05:15.101Z,28.96
2023-04-30T11:08:05.733Z,30.89
2023-04-30T11:11:10.741Z,29.61
2023-04-30T11:14:18.722Z,29.65
2023-04-30T11:17:06.735Z,30.11
2023-04-30T11:19:48.918Z,30.68
2023-04-30T11:22:42.670Z,28.57
2023-04-30T11:25:29.738Z,27.27
2023-04-30T11:28:10.804Z,26.89
2023-04-30T11:30:57.783Z,25.58
2023-04-30T11:33:46.703Z,24.29
2023-04-30T11:36:30.931Z,22.77
2023-04-30T11:39:17.731Z,21.97
2023-04-30T11:41:58.087Z,22.04
2023-04-30T11:44:45.782Z,22.00
2023-04-30T11:47:32.761Z,21.70
2023-04-30T11:50:21.770Z,21.53
2023-04-30T11:53:03.322Z,21.62
2023-04-30T11:55:49.665Z,21.50
2023-04-30T11:58:34.330Z,21.45
2023-04-30T12:01:21.731Z,21.66
2023-04-30T12:04:10.901Z,21.77
2023-04-30T12:06:57.705Z,22.01
2023-04-30T12:10:02.783Z,22.76
2023-04-30T12:12:43.643Z,22.92
2023-04-30T12:15:35.674Z,23.32
2023-04-30T12:18:26.663Z,23.34
2023-04-30T12:21:07.273Z,22.82
2023-04-30T12:23:53.625Z,22.67
2023-04-30T12:26:46.665Z,22.23
2023-04-30T12:29:26.923Z,22.12
2023-04-30T12:32:13.691Z,22.37
2023-04-30T12:35:00.702Z,22.66
2023-04-30T12:37:50.258Z,22.33
2023-04-30T12:40:41.660Z,21.55
2023-04-30T12:43:28.706Z,20.91
2023-04-30T12:46:08.743Z,20.03
2023-04-30T12:48:55.695Z,19.19
2023-04-30T12:51:35.862Z,18.10
2023-04-30T12:54:22.659Z,18.09
2023-04-30T12:57:22.636Z,17.26
2023-04-30T13:00:06.222Z,16.88
2023-04-30T13:02:52.773Z,16.99
2023-04-30T13:05:33.272Z,17.19
2023-04-30T13:08:19.632Z,16.90
2023-04-30T13:11:06.780Z,16.39
2023-04-30T13:13:46.667Z,16.49
2023-04-30T13:16:27.472Z,16.11
2023-04-30T13:19:14.614Z,16.29
2023-04-30T13:21:55.414Z,16.08
2023-04-30T13:24:42.571Z,16.18
2023-04-30T13:27:29.739Z,16.12
2023-04-30T13:30:09.695Z,16.02
2023-04-30T13:32:56.655Z,16.12
2023-04-30T13:35:36.703Z,15.93
2023-04-30T13:41:47.553Z,15.94
2023-04-30T13:44:28.171Z,16.05
2023-04-30T13:47:14.558Z,16.25
2023-04-30T13:49:55.110Z,16.17
2023-04-30T13:52:42.572Z,15.93
2023-04-30T13:55:23.033Z,15.80
2023-04-30T13:58:10.544Z,15.82
2023-04-30T14:00:51.541Z,15.47
2023-04-30T14:03:38.641Z,15.49
2023-04-30T14:06:19.010Z,15.46
2023-04-30T14:09:05.523Z,15.55
2023-04-30T14:11:45.855Z,15.56
2023-04-30T14:14:32.520Z,15.43
2023-04-30T14:17:19.542Z,15.62
2023-04-30T14:19:59.801Z,15.56
2023-04-30T14:22:46.549Z,15.54
2023-04-30T14:25:26.833Z,15.41
2023-04-30T14:28:13.552Z,15.48
2023-04-30T14:30:53.641Z,15.49
2023-04-30T14:33:40.539Z,15.41
2023-04-30T14:36:27.485Z,15.41
2023-04-30T14:39:08.960Z,15.40
2023-04-30T14:41:56.472Z,15.42
2023-04-30T14:44:44.491Z,15.41
2023-04-30T14:47:27.362Z,15.44
2023-04-30T14:50:14.513Z,15.58
2023-04-30T14:52:54.596Z,15.58
2023-04-30T14:55:41.464Z,15.63
2023-04-30T14:58:21.739Z,15.49
2023-04-30T15:01:08.494Z,15.53
2023-04-30T15:03:55.532Z,15.49
2023-04-30T15:06:36.030Z,15.23
2023-04-30T15:09:22.568Z,15.13
2023-04-30T15:12:02.938Z,15.00
2023-04-30T15:14:49.461Z,14.87
2023-04-30T15:17:30.165Z,14.88
2023-04-30T15:20:18.411Z,14.79
2023-04-30T15:23:05.541Z,14.86
2023-04-30T15:25:45.755Z,14.91
2023-04-30T15:28:32.451Z,14.98
2023-04-30T15:31:19.399Z,15.00
2023-04-30T15:33:59.914Z,14.88
2023-04-30T15:36:46.404Z,14.63
2023-04-30T15:39:41.431Z,14.53
2023-04-30T15:42:35.399Z,14.33
2023-04-30T15:45:16.342Z,14.29
2023-04-30T15:48:03.444Z,14.25
2023-04-30T15:50:43.877Z,14.17
2023-04-30T15:53:30.441Z,14.06
2023-04-30T15:56:17.395Z,13.87
2023-04-30T15:59:04.418Z,13.89
2023-04-30T16:01:51.436Z,13.86
2023-04-30T16:04:38.387Z,13.88
2023-04-30T16:07:18.828Z,13.80
2023-04-30T16:10:05.428Z,13.79
2023-04-30T16:12:52.354Z,13.79
2023-04-30T16:15:32.574Z,13.72
2023-04-30T16:18:19.405Z,13.56
2023-04-30T16:21:07.363Z,13.49
2023-04-30T16:23:55.441Z,13.37
2023-04-30T16:26:36.219Z,13.39
2023-04-30T16:29:24.400Z,13.34
2023-04-30T16:32:11.534Z,13.31
2023-04-30T16:34:52.314Z,13.29
2023-04-30T16:37:39.389Z,13.24
2023-04-30T16:40:19.873Z,13.18
2023-04-30T16:43:09.420Z,13.17
2023-04-30T16:45:50.097Z,13.07
2023-04-30T16:48:37.345Z,13.02
2023-04-30T16:51:17.748Z,12.99
2023-04-30T16:54:04.340Z,13.05
2023-04-30T16:56:44.723Z,12.88
2023-04-30T16:59:31.342Z,12.88
2023-04-30T17:02:18.414Z,12.80
2023-04-30T17:04:58.437Z,12.76
2023-04-30T17:07:45.335Z,12.71
2023-04-30T17:10:33.398Z,12.67
2023-04-30T17:13:13.930Z,12.62
2023-04-30T17:16:03.390Z,12.62
2023-04-30T17:18:50.336Z,12.63
2023-04-30T17:21:30.462Z,12.66
2023-04-30T17:24:18.338Z,12.63
2023-04-30T17:27:06.290Z,12.56
2023-04-30T17:29:53.419Z,12.51
2023-04-30T17:32:40.322Z,12.50
2023-04-30T17:35:21.167Z,12.47
2023-04-30T17:38:08.377Z,12.47
2023-04-30T17:40:55.287Z,12.42
2023-04-30T17:43:35.576Z,12.35
2023-04-30T17:46:22.398Z,12.43
2023-04-30T17:49:03.693Z,12.46
2023-04-30T17:51:50.262Z,12.41
2023-04-30T17:54:31.005Z,12.50
2023-04-30T17:57:18.292Z,12.48
2023-04-30T17:59:59.091Z,12.51
2023-04-30T18:02:53.385Z,12.49
2023-04-30T18:05:41.277Z,12.37
2023-04-30T18:08:21.995Z,12.45
2023-04-30T18:11:12.207Z,12.44
2023-04-30T18:14:02.248Z,12.45
2023-04-30T18:16:42.809Z,12.46
2023-04-30T18:19:29.204Z,12.45
2023-04-30T18:22:16.193Z,12.41
2023-04-30T18:25:04.096Z,12.46
2023-04-30T18:27:44.284Z,12.46
2023-04-30T18:30:24.633Z,12.43
2023-04-30T18:33:05.347Z,12.45
2023-04-30T18:35:56.294Z,12.47
2023-04-30T18:38:45.186Z,12.56
2023-04-30T18:41:40.169Z,12.49
2023-04-30T18:44:30.557Z,12.54
2023-04-30T18:47:18.162Z,12.59
2023-04-30T18:49:59.261Z,12.61
2023-04-30T18:52:46.205Z,12.53
2023-04-30T18:55:33.263Z,12.46
2023-04-30T18:58:13.274Z,12.48
2023-04-30T19:01:04.236Z,12.49
2023-04-30T19:03:44.586Z,12.47
2023-04-30T19:06:31.220Z,12.47
2023-04-30T19:09:18.219Z,12.52
2023-04-30T19:12:05.219Z,12.43
2023-04-30T19:14:45.869Z,12.43
2023-04-30T19:17:32.214Z,12.34
2023-04-30T19:20:12.257Z,12.37
2023-04-30T19:22:59.162Z,12.34
2023-04-30T19:41:47.593Z,11.69
2023-04-30T19:44:29.458Z,11.93
2023-04-30T19:47:16.530Z,12.04
2023-04-30T19:50:04.563Z,12.18
2023-04-30T19:52:44.702Z,12.33
2023-04-30T19:55:31.690Z,12.47
2023-04-30T19:58:11.754Z,12.48
2023-04-30T20:01:00.598Z,12.33
2023-04-30T20:03:41.808Z,12.27
2023-04-30T20:06:28.599Z,12.09
2023-04-30T20:09:08.634Z,11.95
2023-04-30T20:11:57.503Z,11.91
2023-04-30T20:14:37.656Z,11.74
2023-04-30T20:17:24.587Z,11.70
2023-04-30T20:20:12.503Z,11.83
2023-04-30T20:23:01.581Z,11.87
2023-04-30T20:25:45.441Z,11.89
2023-04-30T20:28:33.330Z,11.98
2023-04-30T20:31:21.578Z,12.03
2023-04-30T20:34:01.953Z,11.93
2023-04-30T20:36:48.524Z,11.89
2023-04-30T20:39:42.488Z,11.86
2023-04-30T20:42:23.307Z,11.98
2023-04-30T20:45:10.527Z,12.03
2023-04-30T20:47:50.888Z,12.00
2023-04-30T20:50:37.470Z,11.83
2023-04-30T20:53:18.799Z,11.63
2023-04-30T20:56:06.630Z,11.63
2023-04-30T20:58:53.454Z,11.43
2023-04-30T21:01:40.694Z,11.41
2023-04-30T21:04:20.813Z,11.41
2023-04-30T21:07:08.468Z,11.48
2023-04-30T21:09:55.620Z,11.50
2023-04-30T21:12:35.555Z,11.47
2023-04-30T21:15:22.430Z,11.39
2023-04-30T21:18:02.932Z,11.37
2023-04-30T21:20:49.441Z,11.36
2023-04-30T21:23:30.058Z,11.29
2023-04-30T21:26:17.417Z,11.17
2023-04-30T21:28:57.552Z,10.95
2023-04-30T21:31:44.410Z,10.89
2023-04-30T21:34:31.431Z,10.90
2023-04-30T21:37:11.837Z,10.81
2023-04-30T21:39:58.422Z,10.85
2023-04-30T21:42:39.875Z,10.72
2023-04-30T21:45:26.370Z,10.63
2023-04-30T21:48:13.421Z,10.64
2023-04-30T21:50:53.501Z,10.55
2023-04-30T21:53:40.407Z,10.52
2023-04-30T21:56:27.380Z,10.47
2023-04-30T21:59:14.354Z,10.41
2023-04-30T22:01:54.465Z,10.39
2023-04-30T22:04:41.353Z,10.37
2023-04-30T22:07:22.334Z,10.20
2023-04-30T22:10:12.405Z,10.23
2023-04-30T22:12:52.556Z,10.24
2023-04-30T22:18:34.314Z,10.22
2023-04-30T22:21:21.524Z,10.18
2023-04-30T22:24:01.369Z,10.22
2023-04-30T22:26:41.709Z,10.30
2023-04-30T22:29:28.375Z,10.37
2023-04-30T22:32:16.315Z,10.30
2023-04-30T22:34:56.719Z,10.32
2023-04-30T22:37:46.300Z,10.38
2023-04-30T22:40:33.359Z,10.37
2023-04-30T22:43:14.126Z,10.48
2023-04-30T22:46:01.278Z,10.48
2023-04-30T22:48:42.605Z,10.48
2023-04-30T22:51:29.279Z,10.45
2023-04-30T22:54:10.054Z,10.44
2023-04-30T22:56:57.280Z,10.41
2023-04-30T22:59:37.952Z,10.41
2023-04-30T23:02:24.344Z,10.42
2023-04-30T23:05:12.937Z,10.53
2023-04-30T23:07:56.319Z,10.67
2023-04-30T23:10:43.302Z,10.71
2023-04-30T23:13:23.642Z,10.75
2023-04-30T23:16:12.362Z,10.71
2023-04-30T23:18:52.387Z,10.69
2023-04-30T23:21:40.311Z,10.79
2023-04-30T23:24:20.336Z,10.85
2023-04-30T23:27:07.223Z,10.91
2023-04-30T23:29:54.354Z,10.87
2023-04-30T23:32:41.333Z,10.59
2023-04-30T23:35:21.376Z,10.54
2023-04-30T23:38:08.261Z,10.49
2023-04-30T23:40:56.290Z,10.40
2023-04-30T23:43:36.814Z,10.27
2023-04-30T23:46:23.304Z,10.30
2023-04-30T23:49:03.867Z,10.18
2023-04-30T23:51:57.203Z,10.08
2023-04-30T23:54:37.561Z,10.07
2023-04-30T23:57:24.274Z,10.03
